createdAt,value
2022-08-20T00:02:24.782Z,10.60
2022-08-20T00:04:58.346Z,11.20
2022-08-20T00:07:31.824Z,12.13
2022-08-20T00:10:08.485Z,11.88
2022-08-20T00:12:46.196Z,11.88
2022-08-20T00:15:22.201Z,11.13
2022-08-20T00:17:56.361Z,11.95
2022-08-20T00:20:35.102Z,12.40
2022-08-20T00:23:10.664Z,12.68
2022-08-20T00:25:46.378Z,11.60
2022-08-20T00:28:20.099Z,13.35
2022-08-20T00:30:53.802Z,12.68
2022-08-20T00:33:27.566Z,12.75
2022-08-20T00:36:06.690Z,12.07
2022-08-20T00:38:42.611Z,12.60
2022-08-20T00:41:21.760Z,14.27
2022-08-20T00:44:08.908Z,12.25
2022-08-20T00:46:43.462Z,13.02
2022-08-20T00:49:19.847Z,11.98
2022-08-20T00:51:59.374Z,12.35
2022-08-20T00:54:40.757Z,12.73
2022-08-20T00:57:26.678Z,13.75
2022-08-20T01:00:04.750Z,12.05
2022-08-20T01:02:38.425Z,13.15
2022-08-20T01:05:12.769Z,13.45
2022-08-20T01:07:48.565Z,11.73
2022-08-20T01:10:28.687Z,13.43
2022-08-20T01:13:10.138Z,10.90
2022-08-20T01:15:49.506Z,11.90
2022-08-20T01:18:27.028Z,12.90
2022-08-20T01:21:03.897Z,11.40
2022-08-20T01:23:44.746Z,11.45
2022-08-20T01:26:24.461Z,11.38
2022-08-20T01:29:02.313Z,12.23
2022-08-20T01:31:39.088Z,12.10
2022-08-20T01:34:15.436Z,11.07
2022-08-20T01:36:53.097Z,14.43
2022-08-20T01:39:28.982Z,12.68
2022-08-20T01:42:13.078Z,12.45
2022-08-20T01:44:48.377Z,13.15
2022-08-20T01:47:28.393Z,12.02
2022-08-20T01:50:07.317Z,12.77
2022-08-20T01:52:47.335Z,12.90
2022-08-20T01:55:21.222Z,13.15
2022-08-20T01:57:57.201Z,11.88
2022-08-20T02:00:32.745Z,12.95
2022-08-20T02:03:07.926Z,12.35
2022-08-20T02:05:41.553Z,12.52
2022-08-20T02:08:15.234Z,12.63
2022-08-20T02:10:49.205Z,12.52
2022-08-20T02:13:24.796Z,12.38
2022-08-20T02:15:58.446Z,12.38
2022-08-20T02:18:32.096Z,13.45
2022-08-20T02:21:06.067Z,13.13
2022-08-20T02:23:39.668Z,11.88
2022-08-20T02:26:13.510Z,13.35
2022-08-20T02:28:50.899Z,12.73
2022-08-20T02:31:25.221Z,13.32
2022-08-20T02:34:23.090Z,13.52
2022-08-20T02:36:57.405Z,13.43
2022-08-20T02:39:31.080Z,12.95
2022-08-20T02:42:05.441Z,13.32
2022-08-20T02:44:40.827Z,13.18
2022-08-20T02:47:14.346Z,12.77
2022-08-20T02:49:47.905Z,12.70
2022-08-20T02:52:21.791Z,13.10
2022-08-20T02:54:55.263Z,13.20
2022-08-20T02:57:30.363Z,12.75
2022-08-20T03:00:06.674Z,13.18
2022-08-20T03:02:40.284Z,13.00
2022-08-20T03:05:15.970Z,12.38
2022-08-20T03:07:53.678Z,13.02
2022-08-20T03:10:34.759Z,14.30
2022-08-20T03:13:12.430Z,12.60
2022-08-20T03:15:49.897Z,12.18
2022-08-20T03:18:25.097Z,12.65
2022-08-20T03:20:59.016Z,12.35
2022-08-20T03:23:32.819Z,12.93
2022-08-20T03:26:10.666Z,12.27
2022-08-20T03:28:47.224Z,12.93
2022-08-20T03:31:27.308Z,12.95
2022-08-20T03:34:00.955Z,12.95
2022-08-20T03:36:34.569Z,12.70
2022-08-20T03:39:11.832Z,13.38
2022-08-20T03:41:45.471Z,12.02
2022-08-20T03:44:19.098Z,13.30
2022-08-20T03:46:54.560Z,13.27
2022-08-20T03:49:28.108Z,13.70
2022-08-20T03:52:02.755Z,12.80
2022-08-20T03:54:36.335Z,14.35
2022-08-20T03:57:14.651Z,14.02
2022-08-20T03:59:51.944Z,13.18
2022-08-20T04:02:34.576Z,13.70
2022-08-20T04:05:08.975Z,13.80
2022-08-20T04:07:43.211Z,14.18
2022-08-20T04:10:16.756Z,14.00
2022-08-20T04:12:53.130Z,13.77
2022-08-20T04:15:26.894Z,13.48
2022-08-20T04:18:03.096Z,14.52
2022-08-20T04:20:38.067Z,14.23
2022-08-20T04:23:12.181Z,14.43
2022-08-20T04:25:46.978Z,14.90
2022-08-20T04:28:25.001Z,13.32
2022-08-20T04:31:00.431Z,14.48
2022-08-20T04:33:35.633Z,15.82
2022-08-20T04:36:09.302Z,15.57
2022-08-20T04:38:49.657Z,15.05
2022-08-20T04:41:25.291Z,14.80
2022-08-20T04:43:59.708Z,14.43
2022-08-20T04:46:33.325Z,18.50
2022-08-20T04:49:08.962Z,14.23
2022-08-20T04:51:42.734Z,13.48
2022-08-20T04:54:16.323Z,51.65
2022-08-20T04:56:49.976Z,20.17
2022-08-20T04:59:23.661Z,14.63
2022-08-20T05:01:57.360Z,13.98
2022-08-20T05:04:32.390Z,14.40
2022-08-20T05:07:06.169Z,15.25
2022-08-20T05:09:43.775Z,13.35
2022-08-20T05:12:18.288Z,14.13
2022-08-20T05:14:51.992Z,15.57
2022-08-20T05:17:25.690Z,14.85
2022-08-20T05:20:00.972Z,15.70
2022-08-20T05:22:34.487Z,15.70
2022-08-20T05:25:12.056Z,13.48
2022-08-20T05:27:47.823Z,13.48
2022-08-20T05:30:21.640Z,13.15
2022-08-20T05:32:56.080Z,12.80
2022-08-20T05:35:31.490Z,12.82
2022-08-20T05:38:05.167Z,14.05
2022-08-20T05:40:40.003Z,13.15
2022-08-20T05:43:13.659Z,13.18
2022-08-20T05:45:56.495Z,12.80
2022-08-20T05:48:30.414Z,13.48
2022-08-20T05:51:05.644Z,13.15
2022-08-20T05:53:39.153Z,14.13
2022-08-20T05:56:12.848Z,13.52
2022-08-20T05:58:46.550Z,13.20
2022-08-20T06:01:20.212Z,12.30
2022-08-20T06:04:11.373Z,13.50
2022-08-20T06:06:47.381Z,12.80
2022-08-20T06:09:30.936Z,14.18
2022-08-20T06:12:09.112Z,12.88
2022-08-20T06:14:42.709Z,13.05
2022-08-20T06:17:18.712Z,13.18
2022-08-20T06:19:56.444Z,13.38
2022-08-20T06:22:31.716Z,13.07
2022-08-20T06:25:06.774Z,12.63
2022-08-20T06:27:41.308Z,13.65
2022-08-20T06:30:21.812Z,12.30
2022-08-20T06:32:56.539Z,12.00
2022-08-20T06:35:30.173Z,12.38
2022-08-20T06:38:10.751Z,12.63
2022-08-20T06:40:44.318Z,12.77
2022-08-20T06:43:18.016Z,12.88
2022-08-20T06:45:57.833Z,11.27
2022-08-20T06:48:31.374Z,10.90
2022-08-20T06:51:06.723Z,10.70
2022-08-20T06:53:41.871Z,11.10
2022-08-20T06:56:15.537Z,11.35
2022-08-20T06:58:49.698Z,11.65
2022-08-20T07:01:23.451Z,11.98
2022-08-20T07:03:59.850Z,12.05
2022-08-20T07:06:33.449Z,12.55
2022-08-20T07:09:08.454Z,13.57
2022-08-20T07:11:42.373Z,14.45
2022-08-20T07:14:16.290Z,13.75
2022-08-20T07:16:50.697Z,13.32
2022-08-20T07:19:24.597Z,13.30
2022-08-20T07:21:58.185Z,12.00
2022-08-20T07:24:34.969Z,11.82
2022-08-20T07:27:11.392Z,12.00
2022-08-20T07:30:02.426Z,11.23
2022-08-20T07:32:37.144Z,12.10
2022-08-20T07:35:17.144Z,12.02
2022-08-20T07:37:54.651Z,11.93
2022-08-20T07:40:33.317Z,12.70
2022-08-20T07:43:06.989Z,11.68
2022-08-20T07:45:48.076Z,12.55
2022-08-20T07:48:32.279Z,11.25
2022-08-20T07:51:07.454Z,11.63
2022-08-20T07:53:42.203Z,11.85
2022-08-20T07:56:20.218Z,11.35
2022-08-20T07:58:57.047Z,11.60
2022-08-20T08:01:33.128Z,12.18
2022-08-20T08:04:06.962Z,11.10
2022-08-20T08:06:40.762Z,11.00
2022-08-20T08:09:16.008Z,9.82
2022-08-20T08:11:51.933Z,9.75
2022-08-20T08:14:29.592Z,9.88
2022-08-20T08:17:06.040Z,9.27
2022-08-20T08:19:43.945Z,10.85
2022-08-20T08:22:19.961Z,10.52
2022-08-20T08:24:57.145Z,9.85
2022-08-20T08:27:34.321Z,10.60
2022-08-20T08:30:10.295Z,10.30
2022-08-20T08:33:04.096Z,10.82
2022-08-20T08:35:39.231Z,9.27
2022-08-20T08:38:17.471Z,9.65
2022-08-20T08:41:00.289Z,9.55
2022-08-20T08:43:35.357Z,9.95
2022-08-20T08:46:12.926Z,9.07
2022-08-20T08:48:49.487Z,9.45
2022-08-20T08:51:29.600Z,9.27
2022-08-20T08:54:07.153Z,9.57
2022-08-20T08:56:41.643Z,8.95
2022-08-20T08:59:16.723Z,8.75
2022-08-20T09:01:56.950Z,15.73
2022-08-20T09:04:33.824Z,9.98
2022-08-20T09:07:15.536Z,8.85
2022-08-20T09:09:49.096Z,8.60
2022-08-20T09:12:27.992Z,8.63
2022-08-20T09:15:02.950Z,8.65
2022-08-20T09:17:36.473Z,8.18
2022-08-20T09:20:11.619Z,9.10
2022-08-20T09:22:45.335Z,8.82
2022-08-20T09:25:19.970Z,9.05
2022-08-20T09:27:53.811Z,8.75
2022-08-20T09:30:29.854Z,8.43
2022-08-20T09:33:07.559Z,8.07
2022-08-20T09:35:41.611Z,8.73
2022-08-20T09:38:15.214Z,9.35
2022-08-20T09:40:48.925Z,8.52
2022-08-20T09:43:22.679Z,9.13
2022-08-20T09:45:57.691Z,8.07
2022-08-20T09:48:32.251Z,8.50
2022-08-20T09:51:06.464Z,7.55
2022-08-20T09:53:40.173Z,8.90
2022-08-20T09:56:13.928Z,8.35
2022-08-20T09:58:51.204Z,8.77
2022-08-20T10:01:26.252Z,8.38
2022-08-20T10:03:59.926Z,8.65
2022-08-20T10:06:37.694Z,7.93
2022-08-20T10:09:11.490Z,7.65
2022-08-20T10:11:45.108Z,7.35
2022-08-20T10:14:18.739Z,8.00
2022-08-20T10:16:59.870Z,6.53
2022-08-20T10:19:34.171Z,6.60
2022-08-20T10:22:07.825Z,6.78
2022-08-20T10:24:41.516Z,6.57
2022-08-20T10:27:15.135Z,6.47
2022-08-20T10:29:48.878Z,7.93
2022-08-20T10:32:23.962Z,6.28
2022-08-20T10:34:57.556Z,6.57
2022-08-20T10:37:31.274Z,7.05
2022-08-20T10:40:06.399Z,6.80
2022-08-20T10:42:42.631Z,6.15
2022-08-20T10:45:17.509Z,7.18
2022-08-20T10:47:52.653Z,6.15
2022-08-20T10:50:30.231Z,6.68
2022-08-20T10:53:04.521Z,7.43
2022-08-20T10:55:38.217Z,6.03
2022-08-20T10:58:13.397Z,6.93
2022-08-20T11:00:47.526Z,6.28
2022-08-20T11:03:22.778Z,5.65
2022-08-20T11:05:56.302Z,5.82
2022-08-20T11:08:34.088Z,7.18
2022-08-20T11:11:09.509Z,5.70
2022-08-20T11:13:43.058Z,6.78
2022-08-20T11:16:16.662Z,6.45
2022-08-20T11:18:51.755Z,6.57
2022-08-20T11:21:25.272Z,6.20
2022-08-20T11:24:02.701Z,6.95
2022-08-20T11:26:36.764Z,5.68
2022-08-20T11:29:10.420Z,5.32
2022-08-20T11:31:44.114Z,5.75
2022-08-20T11:34:19.344Z,6.40
2022-08-20T11:36:54.210Z,6.32
2022-08-20T11:39:28.172Z,5.55
2022-08-20T11:42:02.037Z,5.75
2022-08-20T11:44:35.837Z,5.70
2022-08-20T11:47:10.140Z,5.25
2022-08-20T11:49:45.398Z,5.90
2022-08-20T11:52:19.029Z,5.85
2022-08-20T11:54:54.969Z,5.70
2022-08-20T11:57:30.893Z,5.60
2022-08-20T12:00:09.922Z,6.10
2022-08-20T12:02:44.057Z,6.20
2022-08-20T12:05:20.127Z,5.60
2022-08-20T12:07:53.756Z,5.55
2022-08-20T12:10:28.311Z,24.58
2022-08-20T12:13:03.435Z,10.85
2022-08-20T12:15:38.918Z,5.28
2022-08-20T12:18:12.623Z,5.15
2022-08-20T12:20:47.695Z,5.68
2022-08-20T12:23:24.435Z,5.68
2022-08-20T12:25:59.195Z,5.13
2022-08-20T12:28:33.364Z,5.45
2022-08-20T12:31:07.234Z,5.60
2022-08-20T12:33:40.799Z,5.18
2022-08-20T12:36:15.795Z,5.72
2022-08-20T12:38:49.324Z,5.38
2022-08-20T12:41:22.946Z,5.25
2022-08-20T12:43:56.437Z,8.02
2022-08-20T12:46:30.073Z,6.50
2022-08-20T12:49:03.642Z,5.15
2022-08-20T12:51:38.626Z,5.32
2022-08-20T12:54:12.155Z,4.90
2022-08-20T12:56:46.331Z,5.65
2022-08-20T12:59:23.016Z,6.30
2022-08-20T13:01:59.355Z,5.88
2022-08-20T13:04:48.193Z,5.78
2022-08-20T13:07:23.222Z,5.85
2022-08-20T13:09:57.245Z,5.72
2022-08-20T13:12:31.259Z,5.50
2022-08-20T13:15:05.243Z,5.97
2022-08-20T13:17:39.699Z,6.10
2022-08-20T13:20:16.313Z,5.90
2022-08-20T13:22:51.244Z,6.15
2022-08-20T13:25:25.748Z,5.70
2022-08-20T13:28:05.128Z,5.68
2022-08-20T13:30:41.086Z,5.90
2022-08-20T13:33:14.853Z,6.18
2022-08-20T13:35:48.478Z,5.35
2022-08-20T13:38:24.405Z,5.80
2022-08-20T13:40:58.731Z,6.90
2022-08-20T13:43:32.355Z,5.57
2022-08-20T13:46:06.679Z,5.32
2022-08-20T13:48:40.316Z,5.47
2022-08-20T13:51:13.878Z,5.80
2022-08-20T13:53:54.535Z,6.13
2022-08-20T13:56:28.112Z,6.00
2022-08-20T13:59:01.758Z,8.30
2022-08-20T14:01:35.478Z,16.63
2022-08-20T14:04:09.161Z,5.90
2022-08-20T14:06:42.748Z,7.20
2022-08-20T14:09:17.806Z,6.15
2022-08-20T14:11:51.437Z,6.05
2022-08-20T14:14:25.063Z,5.75
2022-08-20T14:16:58.718Z,7.20
2022-08-20T14:19:32.295Z,8.68
2022-08-20T14:22:06.269Z,9.40
2022-08-20T14:24:41.323Z,9.75
2022-08-20T14:27:16.777Z,10.13
2022-08-20T14:29:51.845Z,10.05
2022-08-20T14:32:25.513Z,10.57
2022-08-20T14:34:59.509Z,10.93
2022-08-20T14:37:35.080Z,11.25
2022-08-20T14:40:13.244Z,12.77
2022-08-20T14:42:51.607Z,12.05
2022-08-20T14:45:25.721Z,12.68
2022-08-20T14:47:59.902Z,12.35
2022-08-20T14:50:36.239Z,15.93
2022-08-20T14:53:09.875Z,14.27
2022-08-20T14:55:44.892Z,12.88
2022-08-20T14:58:18.629Z,13.27
2022-08-20T15:00:52.355Z,12.85
2022-08-20T15:03:30.640Z,13.70
2022-08-20T15:06:04.374Z,13.90
2022-08-20T15:08:40.580Z,14.82
2022-08-20T15:11:15.720Z,15.50
2022-08-20T15:13:49.357Z,15.40
2022-08-20T15:16:22.873Z,14.57
2022-08-20T15:18:59.217Z,13.35
2022-08-20T15:21:45.044Z,14.60
2022-08-20T15:24:19.742Z,15.05
2022-08-20T15:26:54.942Z,15.10
2022-08-20T15:29:28.650Z,16.15
2022-08-20T15:32:02.241Z,15.63
2022-08-20T15:34:36.201Z,15.50
2022-08-20T15:37:11.098Z,18.58
2022-08-20T15:39:46.418Z,22.27
2022-08-20T15:42:22.795Z,15.35
2022-08-20T15:44:56.326Z,15.70
2022-08-20T15:47:32.936Z,14.90
2022-08-20T15:50:14.227Z,16.52
2022-08-20T15:52:47.969Z,15.38
2022-08-20T15:55:22.447Z,16.65
2022-08-20T15:58:01.446Z,15.98
2022-08-20T16:00:43.182Z,15.40
2022-08-20T16:03:35.435Z,14.48
2022-08-20T16:06:15.454Z,15.13
2022-08-20T16:09:03.896Z,15.88
2022-08-20T16:11:47.856Z,14.40
2022-08-20T16:14:26.834Z,14.45
2022-08-20T16:17:07.633Z,13.73
2022-08-20T16:19:52.503Z,14.45
2022-08-20T16:22:30.815Z,15.10
2022-08-20T16:25:05.005Z,33.00
2022-08-20T16:27:49.270Z,15.45
2022-08-20T16:30:35.595Z,14.57
2022-08-20T16:33:12.313Z,15.25
2022-08-20T16:35:52.346Z,14.98
2022-08-20T16:38:47.817Z,15.63
2022-08-20T16:41:29.363Z,16.15
2022-08-20T16:44:08.084Z,15.43
2022-08-20T16:46:50.209Z,15.57
2022-08-20T16:49:27.504Z,14.87
2022-08-20T16:52:01.314Z,14.73
2022-08-20T16:54:34.993Z,16.30
2022-08-20T16:57:08.697Z,15.00
2022-08-20T17:00:10.119Z,15.38
2022-08-20T17:02:54.591Z,15.35
2022-08-20T17:05:30.829Z,16.42
2022-08-20T17:08:07.224Z,14.15
2022-08-20T17:10:56.217Z,16.50
2022-08-20T17:13:32.127Z,14.90
2022-08-20T17:16:07.981Z,15.38
2022-08-20T17:18:45.101Z,15.98
2022-08-20T17:21:23.570Z,16.20
2022-08-20T17:24:00.475Z,15.93
2022-08-20T17:26:38.451Z,21.27
2022-08-20T17:29:16.586Z,18.02
2022-08-20T17:31:52.537Z,16.30
2022-08-20T17:34:29.902Z,16.15
2022-08-20T17:37:09.223Z,15.65
2022-08-20T17:39:48.118Z,16.42
2022-08-20T17:42:25.617Z,16.33
2022-08-20T17:45:06.951Z,18.25
2022-08-20T17:47:41.457Z,17.15
2022-08-20T17:50:21.207Z,17.48
2022-08-20T17:52:58.357Z,16.52
2022-08-20T17:55:34.989Z,17.13
2022-08-20T17:58:13.634Z,18.48
2022-08-20T18:00:47.433Z,16.75
2022-08-20T18:03:23.648Z,18.90
2022-08-20T18:06:03.945Z,19.00
2022-08-20T18:08:43.661Z,19.92
2022-08-20T18:11:25.242Z,20.10
2022-08-20T18:14:18.371Z,19.45
2022-08-20T18:17:06.317Z,18.77
2022-08-20T18:20:04.301Z,18.92
2022-08-20T18:22:47.634Z,18.27
2022-08-20T18:25:33.661Z,16.70
2022-08-20T18:28:16.076Z,16.10
2022-08-20T18:30:53.119Z,13.63
2022-08-20T18:33:33.581Z,12.50
2022-08-20T18:36:12.358Z,14.65
2022-08-20T18:39:00.259Z,15.60
2022-08-20T18:41:36.196Z,15.35
2022-08-20T18:44:14.264Z,15.40
2022-08-20T18:46:56.418Z,13.20
2022-08-20T18:49:32.471Z,13.00
2022-08-20T18:52:15.159Z,12.80
2022-08-20T18:54:54.939Z,12.63
2022-08-20T18:57:40.652Z,13.45
2022-08-20T19:00:21.857Z,12.63
2022-08-20T19:02:58.714Z,11.52
2022-08-20T19:05:44.257Z,13.25
2022-08-20T19:08:21.467Z,12.48
2022-08-20T19:11:06.166Z,12.02
2022-08-20T19:14:05.135Z,11.27
2022-08-20T19:16:42.139Z,11.38
2022-08-20T19:19:18.179Z,11.35
2022-08-20T19:21:53.236Z,11.43
2022-08-20T19:24:33.174Z,11.82
2022-08-20T19:27:10.362Z,11.88
2022-08-20T19:29:49.527Z,12.13
2022-08-20T19:32:28.396Z,12.85
2022-08-20T19:35:07.107Z,12.23
2022-08-20T19:37:51.693Z,11.07
2022-08-20T19:40:28.476Z,15.20
2022-08-20T19:43:07.352Z,13.13
2022-08-20T19:45:45.460Z,12.77
2022-08-20T19:48:42.946Z,12.23
2022-08-20T19:51:27.141Z,20.40
2022-08-20T19:54:01.860Z,12.85
2022-08-20T19:56:42.417Z,11.77
2022-08-20T19:59:22.919Z,10.63
2022-08-20T20:02:00.496Z,10.60
2022-08-20T20:04:41.171Z,11.05
2022-08-20T20:07:41.141Z,11.55
2022-08-20T20:10:29.436Z,10.85
2022-08-20T20:13:10.824Z,11.45
2022-08-20T20:15:46.253Z,9.27
2022-08-20T20:18:19.841Z,9.70
2022-08-20T20:20:58.213Z,8.82
2022-08-20T20:23:38.724Z,9.07
2022-08-20T20:26:21.315Z,9.32
2022-08-20T20:29:02.308Z,8.60
2022-08-20T20:31:49.696Z,8.95
2022-08-20T20:34:28.204Z,10.15
2022-08-20T20:37:06.617Z,12.32
2022-08-20T20:39:42.732Z,8.45
2022-08-20T20:42:29.732Z,8.88
2022-08-20T20:45:04.142Z,8.82
2022-08-20T20:47:39.208Z,21.55
2022-08-20T20:50:13.694Z,8.50
2022-08-20T20:52:51.440Z,8.90
2022-08-20T20:55:27.842Z,8.32
2022-08-20T20:58:02.547Z,7.90
2022-08-20T21:00:36.574Z,8.50
2022-08-20T21:03:11.697Z,8.32
2022-08-20T21:05:45.353Z,7.90
2022-08-20T21:08:19.953Z,8.30
2022-08-20T21:10:54.977Z,8.23
2022-08-20T21:13:28.614Z,12.05
2022-08-20T21:16:02.406Z,7.68
2022-08-20T21:18:38.176Z,7.72
2022-08-20T21:21:12.215Z,9.00
2022-08-20T21:23:45.816Z,8.32
2022-08-20T21:26:19.659Z,7.97
2022-08-20T21:28:53.344Z,8.38
2022-08-20T21:31:33.064Z,8.25
2022-08-20T21:34:08.207Z,8.63
2022-08-20T21:36:41.942Z,13.60
2022-08-20T21:39:15.721Z,9.25
2022-08-20T21:41:49.705Z,7.63
2022-08-20T21:44:25.533Z,7.90
2022-08-20T21:47:00.271Z,7.78
2022-08-20T21:49:35.741Z,7.93
2022-08-20T21:52:09.434Z,7.95
2022-08-20T21:54:43.218Z,7.85
2022-08-20T21:57:21.767Z,7.40
2022-08-20T21:59:56.221Z,8.45
2022-08-20T22:02:32.418Z,10.32
2022-08-20T22:05:09.448Z,10.15
2022-08-20T22:07:46.254Z,14.40
2022-08-20T22:10:25.903Z,15.55
2022-08-20T22:12:59.422Z,15.70
2022-08-20T22:15:33.296Z,15.63
2022-08-20T22:18:07.229Z,16.30
2022-08-20T22:20:42.861Z,15.73
2022-08-20T22:23:18.799Z,16.25
2022-08-20T22:25:57.111Z,17.00
2022-08-20T22:28:30.903Z,17.13
2022-08-20T22:31:05.684Z,16.27
2022-08-20T22:33:42.363Z,16.13
2022-08-20T22:36:17.610Z,16.50
2022-08-20T22:38:54.609Z,14.35
2022-08-20T22:41:31.647Z,15.68
2022-08-20T22:44:07.710Z,15.25
2022-08-20T22:46:48.230Z,13.70
2022-08-20T22:49:27.408Z,14.90
2022-08-20T22:52:09.998Z,15.35
2022-08-20T22:54:47.795Z,18.73
2022-08-20T22:57:22.381Z,14.98
2022-08-20T22:59:56.388Z,14.07
2022-08-20T23:02:29.916Z,12.63
2022-08-20T23:05:03.694Z,12.90
2022-08-20T23:07:41.759Z,13.18
2022-08-20T23:10:15.804Z,12.38
2022-08-20T23:12:49.555Z,12.65
2022-08-20T23:15:23.045Z,13.13
2022-08-20T23:18:02.179Z,13.63
2022-08-20T23:20:36.238Z,12.40
2022-08-20T23:23:12.327Z,12.60
2022-08-20T23:25:46.596Z,12.13
2022-08-20T23:28:22.521Z,11.77
2022-08-20T23:30:56.394Z,12.07
2022-08-20T23:33:31.529Z,10.25
2022-08-20T23:36:12.892Z,10.50
2022-08-20T23:38:48.463Z,10.23
2022-08-20T23:41:24.877Z,9.15
2022-08-20T23:44:01.138Z,8.93
2022-08-20T23:46:40.603Z,9.63
2022-08-20T23:49:15.781Z,8.30
2022-08-20T23:51:52.309Z,8.70
2022-08-20T23:54:27.746Z,8.70
2022-08-20T23:57:01.362Z,8.35
2022-08-20T23:59:43.976Z,8.90
